createdAt,value
2023-03-04T00:02:19.773Z,75.24
2023-03-04T00:04:46.766Z,75.02
2023-03-04T00:07:17.028Z,75.10
2023-03-04T00:09:45.223Z,75.35
2023-03-04T00:12:12.819Z,74.82
2023-03-04T00:14:40.055Z,75.36
2023-03-04T00:17:07.131Z,75.28
2023-03-04T00:19:35.175Z,75.63
2023-03-04T00:22:04.090Z,75.43
2023-03-04T00:24:31.679Z,75.27
2023-03-04T00:26:58.774Z,75.42
2023-03-04T00:29:25.631Z,75.38
2023-03-04T00:31:52.694Z,75.07
2023-03-04T00:34:19.939Z,75.40
2023-03-04T00:36:46.938Z,75.49
2023-03-04T00:39:13.920Z,75.41
2023-03-04T00:41:40.803Z,75.34
2023-03-04T00:44:08.240Z,75.25
2023-03-04T00:46:35.213Z,75.56
2023-03-04T00:49:02.135Z,75.32
2023-03-04T00:51:29.117Z,75.23
2023-03-04T00:53:56.025Z,75.40
2023-03-04T00:56:22.834Z,75.29
2023-03-04T00:58:49.700Z,75.32
2023-03-04T01:01:16.674Z,75.41
2023-03-04T01:03:43.652Z,75.39
2023-03-04T01:06:11.412Z,75.41
2023-03-04T01:08:39.433Z,75.14
2023-03-04T01:11:06.511Z,75.00
2023-03-04T01:13:33.811Z,75.25
2023-03-04T01:16:00.885Z,75.31
2023-03-04T01:18:27.786Z,75.52
2023-03-04T01:20:54.859Z,75.33
2023-03-04T01:23:21.757Z,75.30
2023-03-04T01:25:48.721Z,75.15
2023-03-04T01:28:15.696Z,75.27
2023-03-04T01:30:42.624Z,74.94
2023-03-04T01:33:09.634Z,75.36
2023-03-04T01:35:36.451Z,75.23
2023-03-04T01:38:05.122Z,75.45
2023-03-04T01:40:32.310Z,75.28
2023-03-04T01:42:59.394Z,75.16
2023-03-04T01:45:26.453Z,75.27
2023-03-04T01:47:53.416Z,75.21
2023-03-04T01:50:27.799Z,75.18
2023-03-04T01:52:54.841Z,75.25
2023-03-04T01:55:23.118Z,75.02
2023-03-04T01:57:51.178Z,75.21
2023-03-04T02:00:28.219Z,75.05
2023-03-04T02:03:01.395Z,75.26
2023-03-04T02:05:28.675Z,75.09
2023-03-04T02:07:56.321Z,75.14
2023-03-04T02:10:23.494Z,75.09
2023-03-04T02:12:50.900Z,74.98
2023-03-04T02:15:18.036Z,75.05
2023-03-04T02:17:44.874Z,75.01
2023-03-04T02:20:37.096Z,75.12
2023-03-04T02:23:22.977Z,74.90
2023-03-04T02:26:15.364Z,74.92
2023-03-04T02:28:43.682Z,74.95
2023-03-04T02:31:39.578Z,75.00
2023-03-04T02:34:11.713Z,74.84
2023-03-04T02:36:39.790Z,74.96
2023-03-04T02:39:13.765Z,75.12
2023-03-04T02:41:40.950Z,74.91
2023-03-04T02:44:19.687Z,75.04
2023-03-04T02:46:47.259Z,74.98
2023-03-04T02:49:14.223Z,74.94
2023-03-04T02:51:41.267Z,75.25
2023-03-04T02:54:19.540Z,75.31
2023-03-04T02:56:48.117Z,75.10
2023-03-04T02:59:16.337Z,75.17
2023-03-04T03:01:44.026Z,75.30
2023-03-04T03:04:11.687Z,75.37
2023-03-04T03:06:39.192Z,75.20
2023-03-04T03:09:06.529Z,75.31
2023-03-04T03:11:34.139Z,75.32
2023-03-04T03:14:02.111Z,75.11
2023-03-04T03:16:29.141Z,75.40
2023-03-04T03:18:56.207Z,75.15
2023-03-04T03:21:24.837Z,75.24
2023-03-04T03:23:51.655Z,75.38
2023-03-04T03:26:19.434Z,75.24
2023-03-04T03:28:46.336Z,75.48
2023-03-04T03:31:13.569Z,75.33
2023-03-04T03:33:40.625Z,75.32
2023-03-04T03:36:08.241Z,75.30
2023-03-04T03:38:35.286Z,75.54
2023-03-04T03:41:02.150Z,75.45
2023-03-04T03:43:29.036Z,75.57
2023-03-04T03:45:55.927Z,75.56
2023-03-04T03:48:22.996Z,75.61
2023-03-04T03:50:49.801Z,75.68
2023-03-04T03:53:16.676Z,75.47
2023-03-04T03:55:43.477Z,75.59
2023-03-04T03:58:10.361Z,75.59
2023-03-04T04:00:37.153Z,75.74
2023-03-04T04:03:04.187Z,75.59
2023-03-04T04:05:31.055Z,75.99
2023-03-04T04:07:58.020Z,75.88
2023-03-04T04:10:24.841Z,75.95
2023-03-04T04:12:51.754Z,75.76
2023-03-04T04:15:18.856Z,75.78
2023-03-04T04:17:45.668Z,75.82
2023-03-04T04:20:12.633Z,76.15
2023-03-04T04:22:39.486Z,75.95
2023-03-04T04:25:08.944Z,76.23
2023-03-04T04:27:35.842Z,75.95
2023-03-04T04:30:04.121Z,76.33
2023-03-04T04:32:31.061Z,75.78
2023-03-04T04:34:57.940Z,76.07
2023-03-04T04:37:24.778Z,75.85
2023-03-04T04:39:52.091Z,76.45
2023-03-04T04:42:19.087Z,76.41
2023-03-04T04:44:46.012Z,76.14
2023-03-04T04:47:12.838Z,76.12
2023-03-04T04:49:39.748Z,76.21
2023-03-04T04:52:06.638Z,76.23
2023-03-04T04:54:33.596Z,76.72
2023-03-04T04:57:00.370Z,76.80
2023-03-04T04:59:27.448Z,76.42
2023-03-04T05:01:54.351Z,76.92
2023-03-04T05:04:21.217Z,76.91
2023-03-04T05:06:48.058Z,76.62
2023-03-04T05:09:14.995Z,76.95
2023-03-04T05:11:41.793Z,76.59
2023-03-04T05:14:08.691Z,76.84
2023-03-04T05:16:35.496Z,77.01
2023-03-04T05:19:02.416Z,77.10
2023-03-04T05:21:29.319Z,76.95
2023-03-04T05:23:56.228Z,77.16
2023-03-04T05:26:23.036Z,77.13
2023-03-04T05:28:49.925Z,77.20
2023-03-04T05:31:17.986Z,76.89
2023-03-04T05:33:44.902Z,77.27
2023-03-04T05:36:11.938Z,77.24
2023-03-04T05:38:39.232Z,77.33
2023-03-04T05:41:07.320Z,77.30
2023-03-04T05:43:36.132Z,77.31
2023-03-04T05:46:04.650Z,77.39
2023-03-04T05:48:31.942Z,77.00
2023-03-04T05:51:01.562Z,77.34
2023-03-04T05:53:29.200Z,77.34
2023-03-04T05:55:56.188Z,77.46
2023-03-04T05:58:22.969Z,77.25
2023-03-04T06:00:49.828Z,77.10
2023-03-04T06:03:18.438Z,77.48
2023-03-04T06:05:45.438Z,77.57
2023-03-04T06:08:12.878Z,76.91
2023-03-04T06:10:41.647Z,77.29
2023-03-04T06:13:08.991Z,77.23
2023-03-04T06:15:35.946Z,77.42
2023-03-04T06:18:03.120Z,77.33
2023-03-04T06:20:30.103Z,77.13
2023-03-04T06:22:56.984Z,77.18
2023-03-04T06:25:24.477Z,77.25
2023-03-04T06:27:52.270Z,77.13
2023-03-04T06:30:20.096Z,77.33
2023-03-04T06:32:48.184Z,77.32
2023-03-04T06:35:16.244Z,77.12
2023-03-04T06:37:43.552Z,77.13
2023-03-04T06:40:11.510Z,77.12
2023-03-04T06:42:38.389Z,76.82
2023-03-04T06:45:05.641Z,77.14
2023-03-04T06:47:32.461Z,77.03
2023-03-04T06:49:59.422Z,76.82
2023-03-04T06:52:26.417Z,76.76
2023-03-04T06:54:53.449Z,76.64
2023-03-04T06:57:20.298Z,77.01
2023-03-04T06:59:47.141Z,76.67
2023-03-04T07:02:14.038Z,76.59
2023-03-04T07:04:41.052Z,76.34
2023-03-04T07:07:07.940Z,76.47
2023-03-04T07:09:35.159Z,76.22
2023-03-04T07:12:02.069Z,76.40
2023-03-04T07:14:28.957Z,76.31
2023-03-04T07:16:55.996Z,76.32
2023-03-04T07:19:23.156Z,75.91
2023-03-04T07:21:50.131Z,75.96
2023-03-04T07:24:17.262Z,76.05
2023-03-04T07:26:44.256Z,75.79
2023-03-04T07:29:12.192Z,75.63
2023-03-04T07:31:39.269Z,75.55
2023-03-04T07:34:08.424Z,75.71
2023-03-04T07:36:36.881Z,75.42
2023-03-04T07:39:04.864Z,75.38
2023-03-04T07:41:32.559Z,75.23
2023-03-04T07:43:59.768Z,75.02
2023-03-04T07:46:26.778Z,75.07
2023-03-04T07:48:55.563Z,74.84
2023-03-04T07:51:24.322Z,74.51
2023-03-04T07:53:53.780Z,74.41
2023-03-04T07:56:23.360Z,73.83
2023-03-04T07:58:52.523Z,74.08
2023-03-04T08:01:23.040Z,73.09
2023-03-04T08:03:50.051Z,72.89
2023-03-04T08:06:18.279Z,72.66
2023-03-04T08:08:45.758Z,72.22
2023-03-04T08:11:21.098Z,71.91
2023-03-04T08:13:49.996Z,71.29
2023-03-04T08:16:19.361Z,70.95
2023-03-04T08:18:49.247Z,70.71
2023-03-04T08:21:19.521Z,70.39
2023-03-04T08:23:46.843Z,70.05
2023-03-04T08:26:20.431Z,69.62
2023-03-04T08:28:47.542Z,69.47
2023-03-04T08:31:15.526Z,69.17
2023-03-04T08:33:42.736Z,68.80
2023-03-04T08:36:10.389Z,68.72
2023-03-04T08:38:37.441Z,68.50
2023-03-04T08:41:04.455Z,68.01
2023-03-04T08:43:32.368Z,67.80
2023-03-04T08:45:59.380Z,67.36
2023-03-04T08:48:26.776Z,67.38
2023-03-04T08:50:54.224Z,66.84
2023-03-04T08:53:21.780Z,66.92
2023-03-04T08:55:48.853Z,66.37
2023-03-04T08:58:15.681Z,66.10
2023-03-04T09:00:51.748Z,65.70
2023-03-04T09:03:22.069Z,65.33
2023-03-04T09:05:49.407Z,65.14
2023-03-04T09:08:16.828Z,64.72
2023-03-04T09:10:45.244Z,64.55
2023-03-04T09:13:14.813Z,64.39
2023-03-04T09:15:49.308Z,64.04
2023-03-04T09:18:22.600Z,63.61
2023-03-04T09:20:50.011Z,63.51
2023-03-04T09:23:17.579Z,63.07
2023-03-04T09:25:46.480Z,63.13
2023-03-04T09:28:14.866Z,62.97
2023-03-04T09:30:41.987Z,62.67
2023-03-04T09:33:09.058Z,62.81
2023-03-04T09:35:36.102Z,62.33
2023-03-04T09:38:03.250Z,62.19
2023-03-04T09:40:51.993Z,62.09
2023-03-04T09:43:29.444Z,62.04
2023-03-04T09:46:05.326Z,61.70
2023-03-04T09:48:40.360Z,61.71
2023-03-04T09:51:41.390Z,61.38
2023-03-04T09:54:10.599Z,61.26
2023-03-04T09:56:39.651Z,61.05
2023-03-04T09:59:26.243Z,60.98
2023-03-04T10:01:55.379Z,60.97
2023-03-04T10:04:36.526Z,60.74
2023-03-04T10:07:06.180Z,60.41
2023-03-04T10:09:48.617Z,60.14
2023-03-04T10:12:20.523Z,59.97
2023-03-04T10:14:51.251Z,60.02
2023-03-04T10:17:40.645Z,59.52
2023-03-04T10:20:27.391Z,59.77
2023-03-04T10:22:58.924Z,59.38
2023-03-04T10:25:29.177Z,59.07
2023-03-04T10:28:16.827Z,58.79
2023-03-04T10:31:17.843Z,58.73
2023-03-04T10:33:44.809Z,58.46
2023-03-04T10:36:35.491Z,58.67
2023-03-04T10:39:13.078Z,58.31
2023-03-04T10:41:45.249Z,58.07
2023-03-04T10:44:17.184Z,57.69
2023-03-04T10:46:45.176Z,57.56
2023-03-04T10:49:15.198Z,57.59
2023-03-04T10:51:51.961Z,57.42
2023-03-04T10:54:50.158Z,57.34
2023-03-04T10:57:23.319Z,57.16
2023-03-04T10:59:57.812Z,56.58
2023-03-04T11:02:30.967Z,56.46
2023-03-04T11:05:19.401Z,56.54
2023-03-04T11:07:56.377Z,56.05
2023-03-04T11:10:44.128Z,56.34
2023-03-04T11:13:20.018Z,56.24
2023-03-04T11:15:55.549Z,56.07
2023-03-04T11:18:46.224Z,55.81
2023-03-04T11:21:19.962Z,55.70
2023-03-04T11:24:25.705Z,55.82
2023-03-04T11:26:59.908Z,55.18
2023-03-04T11:29:35.553Z,55.41
2023-03-04T11:32:15.193Z,55.13
2023-03-04T11:34:52.253Z,55.09
2023-03-04T11:37:56.004Z,54.80
2023-03-04T11:40:38.636Z,54.43
2023-03-04T11:43:14.628Z,54.44
2023-03-04T11:46:11.602Z,54.45
2023-03-04T11:49:05.121Z,53.87
2023-03-04T11:51:48.349Z,53.96
2023-03-04T11:54:36.141Z,53.74
2023-03-04T11:57:13.220Z,53.75
2023-03-04T12:00:06.676Z,53.58
2023-03-04T12:03:13.153Z,53.32
2023-03-04T12:06:12.943Z,53.27
2023-03-04T12:09:00.956Z,53.11
2023-03-04T12:11:43.723Z,53.01
2023-03-04T12:14:50.458Z,52.54
2023-03-04T12:17:29.200Z,52.92
2023-03-04T12:20:19.141Z,52.39
2023-03-04T12:23:11.221Z,52.27
2023-03-04T12:25:45.462Z,52.56
2023-03-04T12:28:52.356Z,52.51
2023-03-04T12:31:29.855Z,52.43
2023-03-04T12:34:24.849Z,52.00
2023-03-04T12:37:31.536Z,51.70
2023-03-04T12:40:13.483Z,52.14
2023-03-04T12:42:43.279Z,52.17
2023-03-04T12:45:25.599Z,51.51
2023-03-04T12:48:23.482Z,51.88
2023-03-04T12:51:02.320Z,51.64
2023-03-04T12:53:34.706Z,51.38
2023-03-04T12:56:03.298Z,51.90
2023-03-04T12:58:31.686Z,51.22
2023-03-04T13:01:26.892Z,51.10
2023-03-04T13:04:18.262Z,51.58
2023-03-04T13:07:14.981Z,51.05
2023-03-04T13:09:52.693Z,50.90
2023-03-04T13:12:22.519Z,51.42
2023-03-04T13:15:19.215Z,51.41
2023-03-04T13:17:54.651Z,50.93
2023-03-04T13:20:39.337Z,50.90
2023-03-04T13:23:27.148Z,50.39
2023-03-04T13:26:18.820Z,50.60
2023-03-04T13:28:45.799Z,50.45
2023-03-04T13:31:16.670Z,50.26
2023-03-04T13:33:50.074Z,50.05
2023-03-04T13:36:31.887Z,49.83
2023-03-04T13:39:03.732Z,50.06
2023-03-04T13:41:33.980Z,49.86
2023-03-04T13:44:34.067Z,49.79
2023-03-04T13:47:09.393Z,49.34
2023-03-04T13:49:36.257Z,49.46
2023-03-04T13:52:34.497Z,49.95
2023-03-04T13:55:31.391Z,49.69
2023-03-04T13:57:58.241Z,49.68
2023-03-04T14:00:25.825Z,49.63
2023-03-04T14:02:52.861Z,49.40
2023-03-04T14:05:19.938Z,49.18
2023-03-04T14:07:46.890Z,49.08
2023-03-04T14:10:24.601Z,49.57
2023-03-04T14:12:54.137Z,49.35
2023-03-04T14:15:29.147Z,49.07
2023-03-04T14:18:04.702Z,49.22
2023-03-04T14:20:37.472Z,49.32
2023-03-04T14:23:22.614Z,49.13
2023-03-04T14:25:49.536Z,49.18
2023-03-04T14:28:20.837Z,49.30
2023-03-04T14:30:55.727Z,49.33
2023-03-04T14:33:24.980Z,49.21
2023-03-04T14:35:55.724Z,49.30
2023-03-04T14:38:29.925Z,49.43
2023-03-04T14:41:07.842Z,48.97
2023-03-04T14:44:03.464Z,49.43
2023-03-04T14:46:37.358Z,49.27
2023-03-04T14:49:04.578Z,49.15
2023-03-04T14:51:42.600Z,49.25
2023-03-04T14:54:31.657Z,49.06
2023-03-04T14:56:59.976Z,49.35
2023-03-04T14:59:35.303Z,48.94
2023-03-04T15:02:39.247Z,48.66
2023-03-04T15:05:25.863Z,48.75
2023-03-04T15:08:34.438Z,48.61
2023-03-04T15:11:04.125Z,48.43
2023-03-04T15:13:49.820Z,48.29
2023-03-04T15:16:19.561Z,48.27
2023-03-04T15:19:20.868Z,48.12
2023-03-04T15:21:47.928Z,47.98
2023-03-04T15:24:15.468Z,48.00
2023-03-04T15:26:43.758Z,48.02
2023-03-04T15:29:14.755Z,47.72
2023-03-04T15:31:43.795Z,48.00
2023-03-04T15:34:15.058Z,47.81
2023-03-04T15:36:42.740Z,47.79
2023-03-04T15:39:13.196Z,47.70
2023-03-04T15:41:40.146Z,47.68
2023-03-04T15:44:07.372Z,47.52
2023-03-04T15:46:34.245Z,47.50
2023-03-04T15:49:01.201Z,47.37
2023-03-04T15:51:28.236Z,47.47
2023-03-04T15:53:57.306Z,47.34
2023-03-04T15:56:31.940Z,47.37
2023-03-04T15:59:11.730Z,47.27
2023-03-04T16:01:38.573Z,47.19
2023-03-04T16:04:05.708Z,47.17
2023-03-04T16:06:33.214Z,47.17
2023-03-04T16:09:00.468Z,47.05
2023-03-04T16:11:29.035Z,46.98
2023-03-04T16:13:55.942Z,47.06
2023-03-04T16:16:22.911Z,47.04
2023-03-04T16:18:49.858Z,47.12
2023-03-04T16:21:19.558Z,46.89
2023-03-04T16:23:48.815Z,47.06
2023-03-04T16:26:27.221Z,47.11
2023-03-04T16:28:54.626Z,46.96
2023-03-04T16:31:22.162Z,46.87
2023-03-04T16:33:49.021Z,46.92
2023-03-04T16:36:20.441Z,46.99
2023-03-04T16:38:47.694Z,46.92
2023-03-04T16:41:16.650Z,47.00
2023-03-04T16:43:52.856Z,47.01
2023-03-04T16:46:20.907Z,47.11
2023-03-04T16:48:48.260Z,46.72
2023-03-04T16:51:18.153Z,46.85
2023-03-04T16:53:48.361Z,46.78
2023-03-04T16:56:17.193Z,46.95
2023-03-04T16:58:45.040Z,46.97
2023-03-04T17:01:23.068Z,47.25
2023-03-04T17:03:49.996Z,46.90
2023-03-04T17:06:17.403Z,46.67
2023-03-04T17:08:44.795Z,47.00
2023-03-04T17:11:13.634Z,47.02
2023-03-04T17:13:40.593Z,47.01
2023-03-04T17:16:07.634Z,47.13
2023-03-04T17:18:34.528Z,47.04
2023-03-04T17:21:04.632Z,46.85
2023-03-04T17:23:31.592Z,47.06
2023-03-04T17:25:59.281Z,47.07
2023-03-04T17:28:27.390Z,47.05
2023-03-04T17:30:54.458Z,46.93
2023-03-04T17:33:21.676Z,47.08
2023-03-04T17:35:48.589Z,47.27
2023-03-04T17:38:16.077Z,47.25
2023-03-04T17:40:43.397Z,47.16
2023-03-04T17:43:13.697Z,47.20
2023-03-04T17:45:41.743Z,46.93
2023-03-04T17:48:17.577Z,47.54
2023-03-04T17:50:51.854Z,47.34
2023-03-04T17:53:19.348Z,47.16
2023-03-04T17:55:54.140Z,47.46
2023-03-04T17:58:21.903Z,47.78
2023-03-04T18:00:50.186Z,47.71
2023-03-04T18:03:17.217Z,47.84
2023-03-04T18:05:44.161Z,47.95
2023-03-04T18:08:11.008Z,47.77
2023-03-04T18:10:38.012Z,47.51
2023-03-04T18:13:04.941Z,47.99
2023-03-04T18:15:32.066Z,47.82
2023-03-04T18:17:58.977Z,48.01
2023-03-04T18:20:26.000Z,48.00
2023-03-04T18:22:52.913Z,47.56
2023-03-04T18:25:21.467Z,48.14
2023-03-04T18:27:48.396Z,48.03
2023-03-04T18:30:17.794Z,47.79
2023-03-04T18:32:51.848Z,47.83
2023-03-04T18:35:19.892Z,48.09
2023-03-04T18:37:47.654Z,48.11
2023-03-04T18:40:15.054Z,48.19
2023-03-04T18:42:44.319Z,48.58
2023-03-04T18:45:15.677Z,48.61
2023-03-04T18:47:44.555Z,48.67
2023-03-04T18:50:12.972Z,48.67
2023-03-04T18:52:40.197Z,48.25
2023-03-04T18:55:07.445Z,48.67
2023-03-04T18:57:34.360Z,48.52
2023-03-04T19:00:03.651Z,48.29
2023-03-04T19:02:34.263Z,48.23
2023-03-04T19:05:14.766Z,49.09
2023-03-04T19:07:41.783Z,48.77
2023-03-04T19:10:09.625Z,49.02
2023-03-04T19:12:36.485Z,48.62
2023-03-04T19:15:06.862Z,49.29
2023-03-04T19:17:35.885Z,48.83
2023-03-04T19:20:04.843Z,48.95
2023-03-04T19:22:31.659Z,48.67
2023-03-04T19:24:58.480Z,49.21
2023-03-04T19:27:25.790Z,49.05
2023-03-04T19:29:52.608Z,49.22
2023-03-04T19:32:19.554Z,49.24
2023-03-04T19:34:52.826Z,49.51
2023-03-04T19:37:20.203Z,48.89
2023-03-04T19:39:49.619Z,49.17
2023-03-04T19:42:17.021Z,49.18
2023-03-04T19:44:45.141Z,49.40
2023-03-04T19:47:14.614Z,49.71
2023-03-04T19:49:41.496Z,49.45
2023-03-04T19:52:08.605Z,49.60
2023-03-04T19:54:38.931Z,49.55
2023-03-04T19:57:07.925Z,49.53
2023-03-04T19:59:36.946Z,49.58
2023-03-04T20:02:05.749Z,50.01
2023-03-04T20:04:34.109Z,49.84
2023-03-04T20:07:04.715Z,49.80
2023-03-04T20:09:32.925Z,50.07
2023-03-04T20:12:00.609Z,49.70
2023-03-04T20:14:28.868Z,49.79
2023-03-04T20:17:05.316Z,49.63
2023-03-04T20:19:36.524Z,50.24
2023-03-04T20:22:07.065Z,49.60
2023-03-04T20:24:34.072Z,49.94
2023-03-04T20:27:00.985Z,49.78
2023-03-04T20:29:29.045Z,49.67
2023-03-04T20:31:56.533Z,50.23
2023-03-04T20:34:24.386Z,49.96
2023-03-04T20:36:52.829Z,50.76
2023-03-04T20:39:28.669Z,50.51
2023-03-04T20:41:59.523Z,50.26
2023-03-04T20:44:26.805Z,50.43
2023-03-04T20:46:53.742Z,50.53
2023-03-04T20:49:24.302Z,50.49
2023-03-04T20:51:58.021Z,50.44
2023-03-04T20:54:25.068Z,50.48
2023-03-04T20:56:52.031Z,49.97
2023-03-04T20:59:18.990Z,50.86
2023-03-04T21:01:48.193Z,50.43
2023-03-04T21:04:15.515Z,50.75
2023-03-04T21:06:43.601Z,50.24
2023-03-04T21:09:14.189Z,50.47
2023-03-04T21:11:41.767Z,50.41
2023-03-04T21:14:25.038Z,50.34
2023-03-04T21:16:57.311Z,51.04
2023-03-04T21:19:32.804Z,50.76
2023-03-04T21:22:01.532Z,50.63
2023-03-04T21:24:30.978Z,51.13
2023-03-04T21:26:58.502Z,50.41
2023-03-04T21:29:27.076Z,51.08
2023-03-04T21:31:57.756Z,50.93
2023-03-04T21:34:30.480Z,50.91
2023-03-04T21:36:57.795Z,50.93
2023-03-04T21:39:25.286Z,51.24
2023-03-04T21:41:52.847Z,51.27
2023-03-04T21:44:28.692Z,51.18
2023-03-04T21:47:01.203Z,51.22
2023-03-04T21:49:28.523Z,51.17
2023-03-04T21:51:55.431Z,51.33
2023-03-04T21:54:22.542Z,51.16
2023-03-04T21:56:50.361Z,51.48
2023-03-04T21:59:20.502Z,51.43
2023-03-04T22:01:47.536Z,50.93
2023-03-04T22:04:14.561Z,51.72
2023-03-04T22:06:41.607Z,51.44
2023-03-04T22:09:08.732Z,51.17
2023-03-04T22:11:36.112Z,51.66
2023-03-04T22:14:03.233Z,51.65
2023-03-04T22:16:31.769Z,51.40
2023-03-04T22:18:59.437Z,52.17
2023-03-04T22:21:26.359Z,51.77
2023-03-04T22:23:53.285Z,51.40
2023-03-04T22:26:26.926Z,52.08
2023-03-04T22:28:53.741Z,51.99
2023-03-04T22:31:30.326Z,51.98
2023-03-04T22:34:04.158Z,52.38
2023-03-04T22:36:33.258Z,51.94
2023-03-04T22:39:01.640Z,52.45
2023-03-04T22:41:28.700Z,52.20
2023-03-04T22:43:55.946Z,52.47
2023-03-04T22:46:25.709Z,52.22
2023-03-04T22:48:55.400Z,51.97
2023-03-04T22:51:22.441Z,52.48
2023-03-04T22:53:50.200Z,52.11
2023-03-04T22:56:17.585Z,52.45
2023-03-04T22:58:45.214Z,52.28
2023-03-04T23:01:13.630Z,52.14
2023-03-04T23:03:41.962Z,52.21
2023-03-04T23:06:15.917Z,52.36
2023-03-04T23:08:44.878Z,52.82
2023-03-04T23:11:15.427Z,52.69
2023-03-04T23:13:43.062Z,52.79
2023-03-04T23:16:12.266Z,52.65
2023-03-04T23:18:40.408Z,53.15
2023-03-04T23:21:12.886Z,52.77
2023-03-04T23:23:41.286Z,53.11
2023-03-04T23:26:19.595Z,52.55
2023-03-04T23:28:46.768Z,52.91
2023-03-04T23:31:17.221Z,53.00
2023-03-04T23:33:45.431Z,52.66
2023-03-04T23:36:15.266Z,52.79
2023-03-04T23:38:47.312Z,52.73
2023-03-04T23:41:16.490Z,52.92
2023-03-04T23:43:43.808Z,53.20
2023-03-04T23:46:14.400Z,53.09
2023-03-04T23:48:43.360Z,53.12
2023-03-04T23:51:10.373Z,53.23
2023-03-04T23:53:39.173Z,52.74
2023-03-04T23:56:11.364Z,52.86
2023-03-04T23:58:38.253Z,53.40
